Etusivu
METAR-TAF:

METAR-TAF

Lentoasemat :

Lydd, Englanti

Leveyspiiri: 50-57N, Pituuspiiri: 000-56E, korkeus merenpinnasta: 3 m

Tämänhetkinen sää

Tämä raportti tehtiin 20 minuuttia sitten, kello 08.20 UTC
Tuuli 5 kn pohjoisen/luoteesta
Lämpötila 1°C
Kosteus 100%
Ilmanpaine 1026 hPa
Näkyvyys: 0800 m
Muutamia pilviä 100 ft:n korkeudessa
sumua

METAR: EGMD 110820Z 33005KT 0800 FG FEW001 01/01 Q1026

Aika: 08:40 (08:40 UTC)

Sääennuste

Tämä raportti tehtiin 39 minuuttia sitten, kello 08.01 UTC
Ennuste voimassa 11. päivästä klo 09 UTC - 11. päivään klo 18 UTC
Tuuli 3 kn etelästä/kaakosta
Näkyvyys: 8000 m
Hajanaisia pilviä 4000 ft:n korkeudessa
Tulossa
11. päivästä klo 09 UTC - 11. päivään klo 12 UTC
Näkyvyys 10 km tai enemmän

TAF: EGMD 110801Z 1109/1118 15003KT 8000 SCT040 BECMG 1109/1112 9999

Säähavainnot ja -ennusteet yli 4000 lentoasemalta (METAR- ja TAF-raportit).

Käytössä olevat sääasemat on merkitty karttaan keltaisilla ja punaisilla pisteillä.

Aseta hiiri pisteen päälle nähdäksesi sääaseman nimen.

Klikkaa sitten nähdäksesi säähavainnot ja -ennusteet.

Kartan vaihtaminen: klikkaa mustalla rastilla varustettuja vihreitä pisteitä, niin voit zoomata sisään; viivalla varustettua vihreää pistettä, niin voit zoomata ulos tai vihreitä nuolia, niin pääset viereisille kartoille.


METAR-TAF: